KTUS

Tucson International Airport

Tucson, Arizona, USA
KTUS 161728Z 1618/1718 VRB04KT P6SM SCT120 FM162000 30010KT P6SM SCT100 BKN150 FM162300 05008KT P6SM VCTS BKN100CB FM170300 15007KT P6SM VCSH SCT100 BKN150 FM170600 14006KT P6SM SCT150
Issued Valid From Valid To
Jul-16 @ 17:28 UTC
(3 hours ago)
Jul-16 @ 18:00 UTC
(2 hours ago)
Jul-17 @ 18:00 UTC
(in 22 hours)
Expired Click to View Jul-16 @ 18:00 to Jul-16 @ 20:00
KTUS 161728Z 1618/1718 VRB04KT P6SM SCT120
Wind Visibility Clouds
Variable at 4 knots Greater than 6 miles
  • Scattered at 12,000' AGL
From Jul-16 @ 20:00 to Jul-16 @ 23:00
FM162000 30010KT P6SM SCT100 BKN150
Wind Visibility Clouds
300° at 10 knots Greater than 6 miles
  • Scattered at 10,000' AGL
  • Broken at 15,000' AGL
From Jul-16 @ 23:00 to Jul-17 @ 03:00
FM162300 05008KT P6SM VCTS BKN100CB
Wind Visibility Clouds Conditions
50° at 8 knots Greater than 6 miles
  • Broken at 10,000' AGL
  • Area Thunderstorm
From Jul-17 @ 03:00 to Jul-17 @ 06:00
FM170300 15007KT P6SM VCSH SCT100 BKN150
Wind Visibility Clouds
150° at 7 knots Greater than 6 miles
  • Scattered at 10,000' AGL
  • Broken at 15,000' AGL
From Jul-17 @ 06:00 to Jul-17 @ 18:00
FM170600 14006KT P6SM SCT150
Wind Visibility Clouds
140° at 6 knots Greater than 6 miles
  • Scattered at 15,000' AGL
KTUS 161728Z 1618/1718 VRB04KT P6SM SCT120 FM162000 30010KT P6SM SCT100 BKN150 FM162300 05008KT P6SM VCTS BKN100CB FM170300 15007KT P6SM VCSH SCT100 BKN150 FM170600 14006KT P6SM SCT150
Issued Jul-16 @ 17:28 UTC
(3 hours ago)
Valid From Jul-16 @ 18:00 UTC
(2 hours ago)
Valid To Jul-17 @ 18:00 UTC
(in 22 hours)
Jul-16 @ 18:00 - Jul-16 @ 20:00
Wind Visibility
Variable at 4 knots Greater than 6 miles
Clouds
  • Scattered at 12,000' AGL
From Jul-16 @ 20:00 - Jul-16 @ 23:00
Wind Visibility
300° at 10 knots Greater than 6 miles
Clouds
  • Scattered at 10,000' AGL
  • Broken at 15,000' AGL
From Jul-16 @ 23:00 - Jul-17 @ 03:00
Wind Visibility
50° at 8 knots Greater than 6 miles
Clouds
  • Broken at 10,000' AGL
Conditions
  • Area Thunderstorm
From Jul-17 @ 03:00 - Jul-17 @ 06:00
Wind Visibility
150° at 7 knots Greater than 6 miles
Clouds
  • Scattered at 10,000' AGL
  • Broken at 15,000' AGL
From Jul-17 @ 06:00 - Jul-17 @ 18:00
Wind Visibility
140° at 6 knots Greater than 6 miles
Clouds
  • Scattered at 15,000' AGL